Time;durP1;ratioP1;P1;durP2;ratioP2;P2;SDS_P1;SDS_P2;PMS_P1;PMS_P2;Temp;Humidity;BMP_temperature;BMP_pressure;BME280_temperature;BME280_humidity;BME280_pressure;Samples;Min_cycle;Max_cycle;Signal;HPM_P1;HPM_P2
2020/12/28 00:01:08;;;;;;;;;;;;;;;;;;4982540;28;19926;-74
2020/12/28 00:03:34;;;;;;;;;;;;;;;;;;4986834;28;20298;-74
2020/12/28 00:06:00;;;;;;;;;;;;;;;;;;4975941;28;19930;-73
2020/12/28 00:08:26;;;;;;;;;;;;;;;;;;4984789;28;19930;-73
2020/12/28 00:10:52;;;;;;;;;;;;;;;;;;4982732;28;19926;-74
2020/12/28 00:13:18;;;;;;;;;;;;;;;;;;4980138;28;19991;-74
2020/12/28 00:15:44;;;;;;;;;;;;;;;;;;4984288;28;19926;-74
2020/12/28 00:18:09;;;;;;;;;;;;;;;;;;4982331;28;20294;-75
2020/12/28 00:20:35;;;;;;;;;;;;;;;;;;4975556;28;20131;-74
2020/12/28 00:23:01;;;;;;;;;;;;;;;;;;4996919;28;19926;-74
2020/12/28 00:25:27;;;;;;;;;;;;;;;;;;5003724;28;19971;-75
2020/12/28 00:27:53;;;;;;;;;;;;;;;;;;4998399;28;19933;-75
2020/12/28 00:30:19;;;;;;;;;;;;;;;;;;5001558;28;20344;-73
2020/12/28 00:32:45;;;;;;;;;;;;;;;;;;5002695;28;19925;-75
2020/12/28 00:35:10;;;;;;;;;;;;;;;;;;4990429;28;19972;-73
2020/12/28 00:37:36;;;;;;;;;;;;;;;;;;5003727;28;19929;-73
2020/12/28 00:40:02;;;;;;;;;;;;;;;;;;5000459;28;19929;-73
2020/12/28 00:42:28;;;;;;;;;;;;;;;;;;5003727;28;20275;-75
2020/12/28 00:44:54;;;;;;;;;;;;;;;;;;4993192;28;19926;-75
2020/12/28 00:47:20;;;;;;;;;;;;;;;;;;5003272;28;20336;-75
2020/12/28 00:49:46;;;;;;;;;;;;;;;;;;5002250;28;19945;-73
2020/12/28 00:52:12;;;;;;;;;;;;;;;;;;4980429;28;19948;-73
2020/12/28 00:54:38;;;;;;;;;;;;;;;;;;4983883;28;19926;-73
2020/12/28 00:57:03;;;;;;;;;;;;;;;;;;4980896;28;19926;-73
2020/12/28 00:59:29;;;;;;;;;;;;;;;;;;4986630;28;19925;-73
2020/12/28 01:01:55;;;;;;;;;;;;;;;;;;4982082;28;19930;-73
2020/12/28 01:04:21;;;;;;;;;;;;;;;;;;4983717;28;19926;-74
2020/12/28 01:06:47;;;;;;;;;;;;;;;;;;4978212;28;20364;-74
2020/12/28 01:09:13;;;;;;;;;;;;;;;;;;4996560;28;19925;-73
2020/12/28 01:11:39;;;;;;;;;;;;;;;;;;5002992;28;19925;-74
2020/12/28 01:14:04;;;;;;;;;;;;;;;;;;5000424;28;19979;-73
2020/12/28 01:16:30;;;;;;;;;;;;;;;;;;4996583;28;20294;-74
2020/12/28 01:18:56;;;;;;;;;;;;;;;;;;4999893;28;19937;-73
2020/12/28 01:21:22;;;;;;;;;;;;;;;;;;5003230;28;20428;-73
2020/12/28 01:23:48;;;;;;;;;;;;;;;;;;4982828;28;19926;-73
2020/12/28 01:26:14;;;;;;;;;;;;;;;;;;4982305;28;19926;-73
2020/12/28 01:28:40;;;;;;;;;;;;;;;;;;4983043;28;19979;-75
2020/12/28 01:31:06;;;;;;;;;;;;;;;;;;4978412;28;19933;-75
2020/12/28 01:33:31;;;;;;;;;;;;;;;;;;4983488;28;20396;-76
2020/12/28 01:35:57;;;;;;;;;;;;;;;;;;4980064;28;19933;-75
2020/12/28 01:38:23;;;;;;;;;;;;;;;;;;4976326;28;19926;-75
2020/12/28 01:40:49;;;;;;;;;;;;;;;;;;4971911;28;20580;-74
2020/12/28 01:43:15;;;;;;;;;;;;;;;;;;4985429;28;19978;-74
2020/12/28 01:45:41;;;;;;;;;;;;;;;;;;4986282;28;19925;-74
2020/12/28 01:48:07;;;;;;;;;;;;;;;;;;4979214;28;20445;-74
2020/12/28 01:50:32;;;;;;;;;;;;;;;;;;4986796;28;19933;-75
2020/12/28 01:52:58;;;;;;;;;;;;;;;;;;4983289;28;20435;-75
2020/12/28 01:55:24;;;;;;;;;;;;;;;;;;4977506;28;19949;-75
2020/12/28 01:57:50;;;;;;;;;;;;;;;;;;4984352;28;19926;-74
2020/12/28 02:00:16;;;;;;;;;;;;;;;;;;4985429;28;19930;-75
2020/12/28 02:02:42;;;;;;;;;;;;;;;;;;4982067;28;20302;-76
2020/12/28 02:05:08;;;;;;;;;;;;;;;;;;4983556;28;19926;-75
2020/12/28 02:07:34;;;;;;;;;;;;;;;;;;4989404;28;19933;-74
2020/12/28 02:10:00;;;;;;;;;;;;;;;;;;4990877;28;19972;-74
2020/12/28 02:12:26;;;;;;;;;;;;;;;;;;5005755;28;20087;-75
2020/12/28 02:14:52;;;;;;;;;;;;;;;;;;5003602;28;19926;-74
2020/12/28 02:17:18;;;;;;;;;;;;;;;;;;4995884;28;19945;-75
2020/12/28 02:19:43;;;;;;;;;;;;;;;;;;4995793;28;19926;-74
2020/12/28 02:22:09;;;;;;;;;;;;;;;;;;4985695;28;20772;-75
2020/12/28 02:24:35;;;;;;;;;;;;;;;;;;5005919;28;19926;-74
2020/12/28 02:27:01;;;;;;;;;;;;;;;;;;4990106;28;19926;-75
2020/12/28 02:29:27;;;;;;;;;;;;;;;;;;4994501;28;19925;-75
2020/12/28 02:31:53;;;;;;;;;;;;;;;;;;4989476;28;19926;-75
2020/12/28 02:34:19;;;;;;;;;;;;;;;;;;4997254;28;20394;-74
2020/12/28 02:36:45;;;;;;;;;;;;;;;;;;5004628;28;19974;-74
2020/12/28 02:39:11;;;;;;;;;;;;;;;;;;5003412;28;19926;-75
2020/12/28 02:41:37;;;;;;;;;;;;;;;;;;5005740;28;19982;-74
2020/12/28 02:44:02;;;;;;;;;;;;;;;;;;4990737;28;19925;-74
2020/12/28 02:46:28;;;;;;;;;;;;;;;;;;5005708;28;19925;-74
2020/12/28 02:48:54;;;;;;;;;;;;;;;;;;4996164;28;19926;-74
2020/12/28 02:51:20;;;;;;;;;;;;;;;;;;5005375;28;19990;-74
2020/12/28 02:53:46;;;;;;;;;;;;;;;;;;5004473;28;19929;-74
2020/12/28 02:56:12;;;;;;;;;;;;;;;;;;5004469;28;19986;-74
2020/12/28 02:58:38;;;;;;;;;;;;;;;;;;4980464;28;20313;-74
2020/12/28 03:01:03;;;;;;;;;;;;;;;;;;4983592;28;19953;-75
2020/12/28 03:03:29;;;;;;;;;;;;;;;;;;4988706;28;19933;-74
2020/12/28 03:05:55;;;;;;;;;;;;;;;;;;4994713;28;19925;-75
2020/12/28 03:08:21;;;;;;;;;;;;;;;;;;5006698;28;19925;-75
2020/12/28 03:10:47;;;;;;;;;;;;;;;;;;5004775;28;20302;-75
2020/12/28 03:13:13;;;;;;;;;;;;;;;;;;4990488;28;19978;-75
2020/12/28 03:15:39;;;;;;;;;;;;;;;;;;4985696;28;19933;-74
2020/12/28 03:18:05;;;;;;;;;;;;;;;;;;4992433;28;20406;-74
2020/12/28 03:20:31;;;;;;;;;;;;;;;;;;4994651;28;19948;-74
2020/12/28 03:22:57;;;;;;;;;;;;;;;;;;5000721;28;19930;-75
2020/12/28 03:25:23;;;;;;;;;;;;;;;;;;5005233;28;19951;-74
2020/12/28 03:27:49;;;;;;;;;;;;;;;;;;5003312;28;19926;-74
2020/12/28 03:30:14;;;;;;;;;;;;;;;;;;4992553;28;19933;-74
2020/12/28 03:32:40;;;;;;;;;;;;;;;;;;5004584;28;20275;-74
2020/12/28 03:35:06;;;;;;;;;;;;;;;;;;5002377;28;19926;-74
2020/12/28 03:37:32;;;;;;;;;;;;;;;;;;4986999;28;19926;-74
2020/12/28 03:39:58;;;;;;;;;;;;;;;;;;5000174;28;19925;-74
2020/12/28 03:42:24;;;;;;;;;;;;;;;;;;5004890;28;20294;-74
2020/12/28 03:44:50;;;;;;;;;;;;;;;;;;4984367;28;19926;-74
2020/12/28 03:47:16;;;;;;;;;;;;;;;;;;4984058;28;19937;-75
2020/12/28 03:49:42;;;;;;;;;;;;;;;;;;4984472;28;19940;-75
2020/12/28 03:52:08;;;;;;;;;;;;;;;;;;4978422;28;19983;-74
2020/12/28 03:54:34;;;;;;;;;;;;;;;;;;4984812;28;19934;-74
2020/12/28 03:57:00;;;;;;;;;;;;;;;;;;4981341;28;19926;-74
2020/12/28 03:59:26;;;;;;;;;;;;;;;;;;4989226;28;19926;-74
2020/12/28 04:01:51;;;;;;;;;;;;;;;;;;4976675;28;20513;-74
2020/12/28 04:04:17;;;;;;;;;;;;;;;;;;4986837;28;19926;-74
2020/12/28 04:06:43;;;;;;;;;;;;;;;;;;4986778;28;19926;-74
2020/12/28 04:09:09;;;;;;;;;;;;;;;;;;4989228;28;19933;-75
2020/12/28 04:11:35;;;;;;;;;;;;;;;;;;5004107;28;19925;-74
2020/12/28 04:14:01;;;;;;;;;;;;;;;;;;5000786;28;19926;-74
2020/12/28 04:16:27;;;;;;;;;;;;;;;;;;4988909;28;20302;-74
2020/12/28 04:18:53;;;;;;;;;;;;;;;;;;5001600;28;19937;-74
2020/12/28 04:21:19;;;;;;;;;;;;;;;;;;5003217;28;20382;-75
2020/12/28 04:23:44;;;;;;;;;;;;;;;;;;4989778;28;19986;-74
2020/12/28 04:26:10;;;;;;;;;;;;;;;;;;4982018;28;19930;-75
2020/12/28 04:28:36;;;;;;;;;;;;;;;;;;4984418;28;19936;-75
2020/12/28 04:31:02;;;;;;;;;;;;;;;;;;4972144;28;19963;-75
2020/12/28 04:33:28;;;;;;;;;;;;;;;;;;5004138;28;19926;-75
2020/12/28 04:35:54;;;;;;;;;;;;;;;;;;4990730;28;19926;-75
2020/12/28 04:38:20;;;;;;;;;;;;;;;;;;4983520;28;19926;-75
2020/12/28 04:40:45;;;;;;;;;;;;;;;;;;4983134;28;19925;-74
2020/12/28 04:43:12;;;;;;;;;;;;;;;;;;4982109;28;20402;-74
2020/12/28 04:45:38;;;;;;;;;;;;;;;;;;4985985;28;20374;-74
2020/12/28 04:48:03;;;;;;;;;;;;;;;;;;4971953;28;19926;-75
2020/12/28 04:50:29;;;;;;;;;;;;;;;;;;4984071;28;20012;-74
2020/12/28 04:52:55;;;;;;;;;;;;;;;;;;4981122;28;19926;-75
2020/12/28 04:55:21;;;;;;;;;;;;;;;;;;4982528;28;19925;-75
2020/12/28 04:57:47;;;;;;;;;;;;;;;;;;5001856;28;20321;-75
2020/12/28 05:00:13;;;;;;;;;;;;;;;;;;5001864;28;19926;-75
2020/12/28 05:02:39;;;;;;;;;;;;;;;;;;4986004;28;19926;-75
2020/12/28 05:05:04;;;;;;;;;;;;;;;;;;5000102;28;19986;-75
2020/12/28 05:07:30;;;;;;;;;;;;;;;;;;5003433;28;19933;-75
2020/12/28 05:09:56;;;;;;;;;;;;;;;;;;4994232;28;20275;-74
2020/12/28 05:12:22;;;;;;;;;;;;;;;;;;4985058;28;19926;-75
2020/12/28 05:14:48;;;;;;;;;;;;;;;;;;4991728;28;20386;-74
2020/12/28 05:17:14;;;;;;;;;;;;;;;;;;5005276;28;20298;-74
2020/12/28 05:19:40;;;;;;;;;;;;;;;;;;4981195;28;19926;-75
2020/12/28 05:22:06;;;;;;;;;;;;;;;;;;4984565;28;19926;-74
2020/12/28 05:24:31;;;;;;;;;;;;;;;;;;4987059;28;20333;-74
2020/12/28 05:26:57;;;;;;;;;;;;;;;;;;4979638;28;19926;-75
2020/12/28 05:29:23;;;;;;;;;;;;;;;;;;4987027;28;19933;-74
2020/12/28 05:31:49;;;;;;;;;;;;;;;;;;4985276;28;19926;-75
2020/12/28 05:34:15;;;;;;;;;;;;;;;;;;4988726;28;19934;-74
2020/12/28 05:36:41;;;;;;;;;;;;;;;;;;4986374;28;19926;-74
2020/12/28 05:39:07;;;;;;;;;;;;;;;;;;4984251;28;19937;-74
2020/12/28 05:41:33;;;;;;;;;;;;;;;;;;4987286;28;19975;-75
2020/12/28 05:43:59;;;;;;;;;;;;;;;;;;4978579;28;20879;-72
2020/12/28 05:46:25;;;;;;;;;;;;;;;;;;4987365;28;19926;-73
2020/12/28 05:48:51;;;;;;;;;;;;;;;;;;4984639;28;19933;-75
2020/12/28 05:51:17;;;;;;;;;;;;;;;;;;4988068;28;19930;-76
2020/12/28 05:53:43;;;;;;;;;;;;;;;;;;5005403;28;19925;-75
2020/12/28 05:56:09;;;;;;;;;;;;;;;;;;5003891;28;19925;-74
2020/12/28 05:58:35;;;;;;;;;;;;;;;;;;4994691;28;20302;-74
2020/12/28 06:01:01;;;;;;;;;;;;;;;;;;4983640;28;19929;-75
2020/12/28 06:03:28;;;;;;;;;;;;;;;;;;4986492;28;19933;-75
2020/12/28 06:05:54;;;;;;;;;;;;;;;;;;4982324;28;20025;-75
2020/12/28 06:08:20;;;;;;;;;;;;;;;;;;5005428;28;19951;-75
2020/12/28 06:10:46;;;;;;;;;;;;;;;;;;5004504;28;19925;-75
2020/12/28 06:13:12;;;;;;;;;;;;;;;;;;4991818;28;23160;-75
2020/12/28 06:15:37;;;;;;;;;;;;;;;;;;4986578;28;19977;-75
2020/12/28 06:18:03;;;;;;;;;;;;;;;;;;5002731;28;19925;-74
2020/12/28 06:20:29;;;;;;;;;;;;;;;;;;5005731;28;20302;-74
2020/12/28 06:22:55;;;;;;;;;;;;;;;;;;4978776;28;19925;-74
2020/12/28 06:25:21;;;;;;;;;;;;;;;;;;5005014;28;19933;-75
2020/12/28 06:27:47;;;;;;;;;;;;;;;;;;5004029;28;20306;-75
2020/12/28 06:30:13;;;;;;;;;;;;;;;;;;4987149;28;20004;-74
2020/12/28 06:32:38;;;;;;;;;;;;;;;;;;4986185;28;19933;-74
2020/12/28 06:35:04;;;;;;;;;;;;;;;;;;4982735;28;19925;-74
2020/12/28 06:37:30;;;;;;;;;;;;;;;;;;4977579;28;19933;-74
2020/12/28 06:39:56;;;;;;;;;;;;;;;;;;4982667;28;19930;-74
2020/12/28 06:42:22;;;;;;;;;;;;;;;;;;4985890;28;19934;-74
2020/12/28 06:44:48;;;;;;;;;;;;;;;;;;4982285;28;20294;-74
2020/12/28 06:47:14;;;;;;;;;;;;;;;;;;4984733;28;19979;-74
2020/12/28 06:49:40;;;;;;;;;;;;;;;;;;4986204;28;19932;-74
2020/12/28 06:52:06;;;;;;;;;;;;;;;;;;4984093;28;20174;-74
2020/12/28 06:54:32;;;;;;;;;;;;;;;;;;4978598;28;20402;-73
2020/12/28 06:56:58;;;;;;;;;;;;;;;;;;4983873;28;20030;-75
2020/12/28 06:59:24;;;;;;;;;;;;;;;;;;4986172;28;19933;-74
2020/12/28 07:01:50;;;;;;;;;;;;;;;;;;4982415;28;19926;-74
2020/12/28 07:04:15;;;;;;;;;;;;;;;;;;4985321;28;19926;-73
2020/12/28 07:06:41;;;;;;;;;;;;;;;;;;4985463;28;19971;-74
2020/12/28 07:09:07;;;;;;;;;;;;;;;;;;4973112;28;20335;-73
2020/12/28 07:11:33;;;;;;;;;;;;;;;;;;4987940;28;19926;-74
2020/12/28 07:13:59;;;;;;;;;;;;;;;;;;5001882;28;19946;-73
2020/12/28 07:16:25;;;;;;;;;;;;;;;;;;4995323;28;19926;-74
2020/12/28 07:18:51;;;;;;;;;;;;;;;;;;5001526;28;19925;-73
2020/12/28 07:21:17;;;;;;;;;;;;;;;;;;5003784;28;19937;-74
2020/12/28 07:23:43;;;;;;;;;;;;;;;;;;5000847;28;19926;-74
2020/12/28 07:26:08;;;;;;;;;;;;;;;;;;4982529;28;20678;-74
2020/12/28 07:28:34;;;;;;;;;;;;;;;;;;4985105;28;19930;-74
2020/12/28 07:31:00;;;;;;;;;;;;;;;;;;4977314;28;19933;-73
2020/12/28 07:33:26;;;;;;;;;;;;;;;;;;4985631;28;19926;-73
2020/12/28 07:35:52;;;;;;;;;;;;;;;;;;4982970;28;19926;-73
2020/12/28 07:38:18;;;;;;;;;;;;;;;;;;4984339;28;19971;-73
2020/12/28 07:40:44;;;;;;;;;;;;;;;;;;4976759;28;19926;-73
2020/12/28 07:43:10;;;;;;;;;;;;;;;;;;4982626;28;19926;-74
2020/12/28 07:45:36;;;;;;;;;;;;;;;;;;4984711;28;19926;-73
2020/12/28 07:48:01;;;;;;;;;;;;;;;;;;4993254;28;19975;-74
2020/12/28 07:50:27;;;;;;;;;;;;;;;;;;5004332;28;20271;-74
2020/12/28 07:52:53;;;;;;;;;;;;;;;;;;5000642;28;19982;-74
2020/12/28 07:55:19;;;;;;;;;;;;;;;;;;4981958;28;19955;-75
2020/12/28 07:57:45;;;;;;;;;;;;;;;;;;4991302;28;20024;-74
2020/12/28 08:00:11;;;;;;;;;;;;;;;;;;4972245;28;20421;-73
2020/12/28 08:02:37;;;;;;;;;;;;;;;;;;4977568;28;19929;-74
2020/12/28 08:05:03;;;;;;;;;;;;;;;;;;4991093;28;20736;-74
2020/12/28 08:07:29;;;;;;;;;;;;;;;;;;4986702;28;19933;-74
2020/12/28 08:09:55;;;;;;;;;;;;;;;;;;4982693;28;19934;-74
2020/12/28 08:12:21;;;;;;;;;;;;;;;;;;4983439;28;19941;-74
2020/12/28 08:14:47;;;;;;;;;;;;;;;;;;4982923;28;19934;-74
2020/12/28 08:17:15;;;;;;;;;;;;;;;;;;4977994;28;20468;-75
2020/12/28 08:19:42;;;;;;;;;;;;;;;;;;4983874;28;20264;-75
2020/12/28 08:22:08;;;;;;;;;;;;;;;;;;4981575;28;19932;-75
2020/12/28 08:24:34;;;;;;;;;;;;;;;;;;4983771;28;19925;-74
2020/12/28 08:26:59;;;;;;;;;;;;;;;;;;4971687;28;19955;-74
2020/12/28 08:29:25;;;;;;;;;;;;;;;;;;4997931;28;19933;-75
2020/12/28 08:31:51;;;;;;;;;;;;;;;;;;4978036;28;19934;-75
2020/12/28 08:34:17;;;;;;;;;;;;;;;;;;4989127;28;19937;-74
2020/12/28 08:36:43;;;;;;;;;;;;;;;;;;5002288;28;19926;-74
2020/12/28 08:39:09;;;;;;;;;;;;;;;;;;4983093;28;19965;-75
2020/12/28 08:41:35;;;;;;;;;;;;;;;;;;4992000;28;19930;-75
2020/12/28 08:44:01;;;;;;;;;;;;;;;;;;4986176;28;20330;-73
2020/12/28 08:46:27;;;;;;;;;;;;;;;;;;4984673;28;19926;-74
2020/12/28 08:48:52;;;;;;;;;;;;;;;;;;4981599;28;20402;-74
2020/12/28 08:51:19;;;;;;;;;;;;;;;;;;5003179;28;19925;-74
2020/12/28 08:53:44;;;;;;;;;;;;;;;;;;5003680;28;19926;-73
2020/12/28 08:56:10;;;;;;;;;;;;;;;;;;4987219;28;19933;-74
2020/12/28 08:58:36;;;;;;;;;;;;;;;;;;4982225;28;19949;-74
2020/12/28 09:01:03;;;;;;;;;;;;;;;;;;4990697;28;19930;-73
2020/12/28 09:03:29;;;;;;;;;;;;;;;;;;4983132;28;20005;-73
2020/12/28 09:05:55;;;;;;;;;;;;;;;;;;4992266;28;19933;-73
2020/12/28 09:08:21;;;;;;;;;;;;;;;;;;4988246;28;19987;-73
2020/12/28 09:10:47;;;;;;;;;;;;;;;;;;4991364;28;20292;-73
2020/12/28 09:13:13;;;;;;;;;;;;;;;;;;4977069;28;19926;-74
2020/12/28 09:15:39;;;;;;;;;;;;;;;;;;4987011;28;19937;-74
2020/12/28 09:18:04;;;;;;;;;;;;;;;;;;4970867;28;19986;-74
2020/12/28 09:20:30;;;;;;;;;;;;;;;;;;5000770;28;19925;-73
2020/12/28 09:22:56;;;;;;;;;;;;;;;;;;4984210;28;19933;-74
2020/12/28 09:25:22;;;;;;;;;;;;;;;;;;4986129;28;19926;-74
2020/12/28 09:27:48;;;;;;;;;;;;;;;;;;4981773;28;20002;-75
2020/12/28 09:30:14;;;;;;;;;;;;;;;;;;4988739;28;19926;-75
2020/12/28 09:32:40;;;;;;;;;;;;;;;;;;4990119;28;19925;-75
2020/12/28 09:35:06;;;;;;;;;;;;;;;;;;4989296;28;19929;-75
2020/12/28 09:37:32;;;;;;;;;;;;;;;;;;5085483;28;20349;-75
2020/12/28 09:39:57;;;;;;;;;;;;;;;;;;4986702;28;19925;-74
2020/12/28 09:42:23;;;;;;;;;;;;;;;;;;4987710;28;19929;-74
2020/12/28 09:44:49;;;;;;;;;;;;;;;;;;4975734;28;20302;-73
2020/12/28 09:47:15;;;;;;;;;;;;;;;;;;4982244;28;19957;-74
2020/12/28 09:49:41;;;;;;;;;;;;;;;;;;5032450;28;19941;-73
2020/12/28 09:52:07;;;;;;;;;;;;;;;;;;4986994;28;19925;-73
2020/12/28 09:54:34;;;;;;;;;;;;;;;;;;5018448;28;19926;-74
2020/12/28 09:57:04;;;;;;;;;;;;;;;;;;5102060;28;19973;-74
2020/12/28 09:59:30;;;;;;;;;;;;;;;;;;5057666;27;19926;-74
2020/12/28 10:01:56;;;;;;;;;;;;;;;;;;4986927;28;19948;-73
2020/12/28 10:04:22;;;;;;;;;;;;;;;;;;4982685;28;19926;-74
2020/12/28 10:06:48;;;;;;;;;;;;;;;;;;4989648;28;19940;-74
2020/12/28 10:09:14;;;;;;;;;;;;;;;;;;4996645;28;19926;-73
2020/12/28 10:11:40;;;;;;;;;;;;;;;;;;4986778;28;19949;-74
2020/12/28 10:14:06;;;;;;;;;;;;;;;;;;4989695;28;19935;-76
2020/12/28 10:16:31;;;;;;;;;;;;;;;;;;4976802;28;19926;-75
2020/12/28 10:18:57;;;;;;;;;;;;;;;;;;4987170;28;19937;-74
2020/12/28 10:21:23;;;;;;;;;;;;;;;;;;4999538;28;20370;-74
2020/12/28 10:23:49;;;;;;;;;;;;;;;;;;4979756;28;19949;-75
2020/12/28 10:26:15;;;;;;;;;;;;;;;;;;4988961;28;19933;-74
2020/12/28 10:28:41;;;;;;;;;;;;;;;;;;5011267;28;20341;-75
2020/12/28 10:31:07;;;;;;;;;;;;;;;;;;4985303;28;19927;-74
2020/12/28 10:33:33;;;;;;;;;;;;;;;;;;4995678;28;19984;-76
2020/12/28 10:35:59;;;;;;;;;;;;;;;;;;4988979;28;19925;-77
2020/12/28 10:38:25;;;;;;;;;;;;;;;;;;4986149;28;19926;-76
2020/12/28 10:40:51;;;;;;;;;;;;;;;;;;4988990;28;19929;-78
2020/12/28 10:43:17;;;;;;;;;;;;;;;;;;4995457;28;19930;-78
2020/12/28 10:45:43;;;;;;;;;;;;;;;;;;4974368;28;19960;-77
2020/12/28 10:48:09;;;;;;;;;;;;;;;;;;4990769;28;19933;-77
2020/12/28 10:50:34;;;;;;;;;;;;;;;;;;4979374;28;19929;-78
2020/12/28 10:53:00;;;;;;;;;;;;;;;;;;4988975;28;20295;-77
2020/12/28 10:55:26;;;;;;;;;;;;;;;;;;4984028;28;19932;-78
2020/12/28 10:57:52;;;;;;;;;;;;;;;;;;4993622;28;19929;-77
2020/12/28 11:00:18;;;;;;;;;;;;;;;;;;4991440;28;20310;-78
2020/12/28 11:02:44;;;;;;;;;;;;;;;;;;4982735;28;19941;-78
2020/12/28 11:05:10;;;;;;;;;;;;;;;;;;4994125;28;19986;-78
2020/12/28 11:07:36;;;;;;;;;;;;;;;;;;4979623;28;19945;-77
2020/12/28 11:10:02;;;;;;;;;;;;;;;;;;4984746;28;19926;-76
2020/12/28 11:12:27;;;;;;;;;;;;;;;;;;4983330;28;19933;-77
2020/12/28 11:14:53;;;;;;;;;;;;;;;;;;4981119;28;20303;-78
2020/12/28 11:17:19;;;;;;;;;;;;;;;;;;5017058;28;19951;-77
2020/12/28 11:19:45;;;;;;;;;;;;;;;;;;4986335;28;19933;-76
2020/12/28 11:22:11;;;;;;;;;;;;;;;;;;4975798;28;19933;-77
2020/12/28 11:24:37;;;;;;;;;;;;;;;;;;4987981;28;19926;-76
2020/12/28 11:27:03;;;;;;;;;;;;;;;;;;4998697;28;20301;-75
2020/12/28 11:29:29;;;;;;;;;;;;;;;;;;4988386;28;19930;-77
2020/12/28 11:31:55;;;;;;;;;;;;;;;;;;4989140;28;20366;-76
2020/12/28 11:34:20;;;;;;;;;;;;;;;;;;4980852;28;20297;-77
2020/12/28 11:36:46;;;;;;;;;;;;;;;;;;4995287;28;19945;-77
2020/12/28 11:39:14;;;;;;;;;;;;;;;;;;4986292;28;19930;-78
2020/12/28 11:41:40;;;;;;;;;;;;;;;;;;4981047;28;19926;-76
2020/12/28 11:44:10;;;;;;;;;;;;;;;;;;5008660;28;19979;-77
2020/12/28 11:46:36;;;;;;;;;;;;;;;;;;4977804;28;20629;-74
2020/12/28 11:49:02;;;;;;;;;;;;;;;;;;4988156;28;20421;-75
2020/12/28 11:51:28;;;;;;;;;;;;;;;;;;4971424;28;19926;-75
2020/12/28 11:53:54;;;;;;;;;;;;;;;;;;4988727;28;19925;-75
2020/12/28 11:56:20;;;;;;;;;;;;;;;;;;4983920;28;19926;-77
2020/12/28 11:58:46;;;;;;;;;;;;;;;;;;4977110;28;20360;-75
2020/12/28 12:01:12;;;;;;;;;;;;;;;;;;4981617;28;19926;-75
2020/12/28 12:03:38;;;;;;;;;;;;;;;;;;4978072;28;20371;-76
2020/12/28 12:06:04;;;;;;;;;;;;;;;;;;4977358;28;19925;-74
2020/12/28 12:08:29;;;;;;;;;;;;;;;;;;4988518;28;19970;-75
2020/12/28 12:10:55;;;;;;;;;;;;;;;;;;4985907;28;19932;-74
2020/12/28 12:13:21;;;;;;;;;;;;;;;;;;4969728;28;19932;-76
2020/12/28 12:15:47;;;;;;;;;;;;;;;;;;4988855;28;19933;-75
2020/12/28 12:18:13;;;;;;;;;;;;;;;;;;4990545;28;19975;-74
2020/12/28 12:20:39;;;;;;;;;;;;;;;;;;5085882;28;19959;-74
2020/12/28 12:23:05;;;;;;;;;;;;;;;;;;4972036;28;19932;-75
2020/12/28 12:25:31;;;;;;;;;;;;;;;;;;4979820;28;19926;-76
2020/12/28 12:27:57;;;;;;;;;;;;;;;;;;4985004;28;19930;-75
2020/12/28 12:30:23;;;;;;;;;;;;;;;;;;4979481;28;19925;-76
2020/12/28 12:32:48;;;;;;;;;;;;;;;;;;4988597;28;19925;-75
2020/12/28 12:35:14;;;;;;;;;;;;;;;;;;4979507;28;20344;-76
2020/12/28 12:37:40;;;;;;;;;;;;;;;;;;4975684;28;19933;-74
2020/12/28 12:40:06;;;;;;;;;;;;;;;;;;4983960;28;19995;-74
2020/12/28 12:42:32;;;;;;;;;;;;;;;;;;4987658;28;19933;-76
2020/12/28 12:44:58;;;;;;;;;;;;;;;;;;4980922;28;19926;-75
2020/12/28 12:47:24;;;;;;;;;;;;;;;;;;4980539;28;20298;-75
2020/12/28 12:49:50;;;;;;;;;;;;;;;;;;4982362;28;19929;-74
2020/12/28 12:52:17;;;;;;;;;;;;;;;;;;4980378;28;19932;-75
2020/12/28 12:54:43;;;;;;;;;;;;;;;;;;4975911;28;20513;-75
2020/12/28 12:57:09;;;;;;;;;;;;;;;;;;4997831;28;19926;-75
2020/12/28 13:00:02;;;;;;;;;;;;;;;;;;4992689;28;19926;-76
2020/12/28 13:02:22;;;;;;;;;;;;;;;;;;4980909;28;19933;-75
2020/12/28 13:04:48;;;;;;;;;;;;;;;;;;4977819;28;19929;-77
2020/12/28 13:07:14;;;;;;;;;;;;;;;;;;4999019;28;19925;-76
2020/12/28 13:09:40;;;;;;;;;;;;;;;;;;4985636;28;19937;-75
2020/12/28 13:12:06;;;;;;;;;;;;;;;;;;4981478;28;19975;-75
2020/12/28 13:14:32;;;;;;;;;;;;;;;;;;4994607;28;19943;-75
2020/12/28 13:16:58;;;;;;;;;;;;;;;;;;4991904;28;19926;-76
2020/12/28 13:19:24;;;;;;;;;;;;;;;;;;4987860;28;19948;-77
2020/12/28 13:21:50;;;;;;;;;;;;;;;;;;4982865;28;19925;-76
2020/12/28 13:24:16;;;;;;;;;;;;;;;;;;4978447;28;19930;-75
2020/12/28 13:26:42;;;;;;;;;;;;;;;;;;4977630;28;23596;-76
2020/12/28 13:29:08;;;;;;;;;;;;;;;;;;4990485;28;19929;-75
2020/12/28 13:31:34;;;;;;;;;;;;;;;;;;4985307;28;20779;-76
2020/12/28 13:34:00;;;;;;;;;;;;;;;;;;4983486;28;20267;-75
2020/12/28 13:36:26;;;;;;;;;;;;;;;;;;4983113;28;19980;-75
2020/12/28 13:38:52;;;;;;;;;;;;;;;;;;4999216;28;19926;-76
2020/12/28 13:41:17;;;;;;;;;;;;;;;;;;4984592;28;19937;-76
2020/12/28 13:43:43;;;;;;;;;;;;;;;;;;4997565;28;19925;-75
2020/12/28 13:46:09;;;;;;;;;;;;;;;;;;5005011;28;20328;-75
2020/12/28 13:48:35;;;;;;;;;;;;;;;;;;4983482;28;19933;-76
2020/12/28 13:51:01;;;;;;;;;;;;;;;;;;4998298;28;19932;-75
2020/12/28 13:53:27;;;;;;;;;;;;;;;;;;4996698;28;19934;-76
2020/12/28 13:55:53;;;;;;;;;;;;;;;;;;4981040;28;20008;-76
2020/12/28 13:58:19;;;;;;;;;;;;;;;;;;4982555;28;19926;-76
2020/12/28 14:00:45;;;;;;;;;;;;;;;;;;5012819;28;19924;-76
2020/12/28 14:03:11;;;;;;;;;;;;;;;;;;5019050;28;19937;-76
2020/12/28 14:05:36;;;;;;;;;;;;;;;;;;4987169;28;19929;-76
2020/12/28 14:08:02;;;;;;;;;;;;;;;;;;4988745;28;19926;-76
2020/12/28 14:10:28;;;;;;;;;;;;;;;;;;4969110;28;19945;-77
2020/12/28 14:12:54;;;;;;;;;;;;;;;;;;4985837;28;19990;-74
2020/12/28 14:15:20;;;;;;;;;;;;;;;;;;4978837;28;19935;-78
2020/12/28 14:17:46;;;;;;;;;;;;;;;;;;4981840;28;20276;-77
2020/12/28 14:20:12;;;;;;;;;;;;;;;;;;4983674;28;19926;-77
2020/12/28 14:22:38;;;;;;;;;;;;;;;;;;4982170;28;19933;-78
2020/12/28 14:25:03;;;;;;;;;;;;;;;;;;4990969;28;19926;-77
2020/12/28 14:27:29;;;;;;;;;;;;;;;;;;4977299;28;19933;-75
2020/12/28 14:29:55;;;;;;;;;;;;;;;;;;4989702;28;20435;-76
2020/12/28 14:32:21;;;;;;;;;;;;;;;;;;4988018;28;19933;-77
2020/12/28 14:34:47;;;;;;;;;;;;;;;;;;4986142;28;19929;-77
2020/12/28 14:37:13;;;;;;;;;;;;;;;;;;4986790;28;19926;-76
2020/12/28 14:39:41;;;;;;;;;;;;;;;;;;4984451;28;19936;-77
2020/12/28 14:42:07;;;;;;;;;;;;;;;;;;4985192;28;19925;-78
2020/12/28 14:44:33;;;;;;;;;;;;;;;;;;4980893;28;20323;-77
2020/12/28 14:46:59;;;;;;;;;;;;;;;;;;5001082;28;19926;-78
2020/12/28 14:49:25;;;;;;;;;;;;;;;;;;4978858;28;20726;-78
2020/12/28 14:51:51;;;;;;;;;;;;;;;;;;4987293;28;19930;-79
2020/12/28 14:54:16;;;;;;;;;;;;;;;;;;4982485;28;20371;-77
2020/12/28 14:56:42;;;;;;;;;;;;;;;;;;4985267;28;19934;-77
2020/12/28 14:59:08;;;;;;;;;;;;;;;;;;4982381;28;19938;-78
2020/12/28 15:01:34;;;;;;;;;;;;;;;;;;4977540;28;19948;-77
2020/12/28 15:04:00;;;;;;;;;;;;;;;;;;4985281;28;19933;-78
2020/12/28 15:06:26;;;;;;;;;;;;;;;;;;4989121;28;19933;-78
2020/12/28 15:08:52;;;;;;;;;;;;;;;;;;4992769;28;19948;-76
2020/12/28 15:11:18;;;;;;;;;;;;;;;;;;4979355;28;19926;-78
2020/12/28 15:13:45;;;;;;;;;;;;;;;;;;4989013;28;19933;-75
2020/12/28 15:16:11;;;;;;;;;;;;;;;;;;4977792;28;20020;-74
2020/12/28 15:18:36;;;;;;;;;;;;;;;;;;4994672;28;19925;-77
2020/12/28 15:21:02;;;;;;;;;;;;;;;;;;4984039;28;20394;-77
2020/12/28 15:23:29;;;;;;;;;;;;;;;;;;4976207;28;19926;-76
2020/12/28 15:25:55;;;;;;;;;;;;;;;;;;4995307;28;19930;-76
2020/12/28 15:28:21;;;;;;;;;;;;;;;;;;4976807;28;19933;-75
2020/12/28 15:30:46;;;;;;;;;;;;;;;;;;5000161;28;19925;-75
2020/12/28 15:33:12;;;;;;;;;;;;;;;;;;4984122;28;19925;-75
2020/12/28 15:35:38;;;;;;;;;;;;;;;;;;4983021;28;19983;-75
2020/12/28 15:38:04;;;;;;;;;;;;;;;;;;4984610;28;19933;-75
2020/12/28 15:40:30;;;;;;;;;;;;;;;;;;4978907;28;19926;-75
2020/12/28 15:42:56;;;;;;;;;;;;;;;;;;4978947;28;19929;-74
2020/12/28 15:45:22;;;;;;;;;;;;;;;;;;4982465;28;19926;-75
2020/12/28 15:47:47;;;;;;;;;;;;;;;;;;4985323;28;19929;-76
2020/12/28 15:50:13;;;;;;;;;;;;;;;;;;4986741;28;19979;-73
2020/12/28 15:52:39;;;;;;;;;;;;;;;;;;4985444;28;20763;-74
2020/12/28 15:55:05;;;;;;;;;;;;;;;;;;4982552;28;19933;-76
2020/12/28 15:57:31;;;;;;;;;;;;;;;;;;4982735;28;19933;-74
2020/12/28 15:59:57;;;;;;;;;;;;;;;;;;4994708;28;20344;-75
2020/12/28 16:02:23;;;;;;;;;;;;;;;;;;4992445;28;19926;-76
2020/12/28 16:04:49;;;;;;;;;;;;;;;;;;4987609;28;19925;-74
2020/12/28 16:07:14;;;;;;;;;;;;;;;;;;4986738;28;19948;-75
2020/12/28 16:09:40;;;;;;;;;;;;;;;;;;4995796;28;19940;-74
2020/12/28 16:12:06;;;;;;;;;;;;;;;;;;4989739;28;19929;-74
2020/12/28 16:14:32;;;;;;;;;;;;;;;;;;4987681;28;19932;-74
2020/12/28 16:16:58;;;;;;;;;;;;;;;;;;5011727;28;19983;-74
2020/12/28 16:19:24;;;;;;;;;;;;;;;;;;5001558;28;19925;-73
2020/12/28 16:21:50;;;;;;;;;;;;;;;;;;4982626;28;19929;-74
2020/12/28 16:24:16;;;;;;;;;;;;;;;;;;4986018;28;19925;-74
2020/12/28 16:26:42;;;;;;;;;;;;;;;;;;4986586;28;19926;-74
2020/12/28 16:29:07;;;;;;;;;;;;;;;;;;4983793;28;19930;-74
2020/12/28 16:31:33;;;;;;;;;;;;;;;;;;4989117;28;19926;-74
2020/12/28 16:34:01;;;;;;;;;;;;;;;;;;4985221;28;20291;-74
2020/12/28 16:36:27;;;;;;;;;;;;;;;;;;4982668;28;20306;-75